createdAt,value
2023-11-15T00:01:46.772Z,19.70
2023-11-15T00:04:21.123Z,19.70
2023-11-15T00:06:53.894Z,19.70
2023-11-15T00:09:27.526Z,19.70
2023-11-15T00:12:00.752Z,19.80
2023-11-15T00:14:33.953Z,19.80
2023-11-15T00:17:07.015Z,19.80
2023-11-15T00:19:39.971Z,19.80
2023-11-15T00:22:14.148Z,19.80
2023-11-15T00:24:48.395Z,19.80
2023-11-15T00:27:21.345Z,19.90
2023-11-15T00:29:57.008Z,19.90
2023-11-15T00:32:31.469Z,19.90
2023-11-15T00:35:04.466Z,19.90
2023-11-15T00:37:38.826Z,19.80
2023-11-15T00:40:13.998Z,19.80
2023-11-15T00:42:46.895Z,19.80
2023-11-15T00:45:19.790Z,19.80
2023-11-15T00:47:53.007Z,19.80
2023-11-15T00:50:26.024Z,19.70
2023-11-15T00:53:00.355Z,19.70
2023-11-15T00:55:33.336Z,19.70
2023-11-15T00:58:06.962Z,19.70
2023-11-15T01:00:44.632Z,19.70
2023-11-15T01:03:18.901Z,19.60
2023-11-15T01:05:52.175Z,19.60
2023-11-15T01:08:26.556Z,19.60
2023-11-15T01:10:59.801Z,19.50
2023-11-15T01:13:32.949Z,19.50
2023-11-15T01:16:07.131Z,19.50
2023-11-15T01:18:44.246Z,19.50
2023-11-15T01:21:17.299Z,19.40
2023-11-15T01:23:50.462Z,19.40
2023-11-15T01:26:24.361Z,19.40
2023-11-15T01:28:58.537Z,19.40
2023-11-15T01:31:31.627Z,19.40
2023-11-15T01:34:04.451Z,19.40
2023-11-15T01:36:37.761Z,19.30
2023-11-15T01:39:12.791Z,19.30
2023-11-15T01:41:46.886Z,19.30
2023-11-15T01:44:24.190Z,19.20
2023-11-15T01:46:58.002Z,19.20
2023-11-15T01:49:30.922Z,19.20
2023-11-15T01:52:04.095Z,19.20
2023-11-15T01:54:38.143Z,19.20
2023-11-15T01:57:11.309Z,19.20
2023-11-15T01:59:45.059Z,19.20
2023-11-15T02:02:19.732Z,19.10
2023-11-15T02:04:52.827Z,19.10
2023-11-15T02:07:29.925Z,19.10
2023-11-15T02:10:04.180Z,19.10
2023-11-15T02:12:42.492Z,19.10
2023-11-15T02:15:15.840Z,19.00
2023-11-15T02:17:54.961Z,19.00
2023-11-15T02:20:27.974Z,18.90
2023-11-15T02:23:02.560Z,18.90
2023-11-15T02:25:37.478Z,18.90
2023-11-15T02:28:13.074Z,18.90
2023-11-15T02:30:46.119Z,18.90
2023-11-15T02:33:19.385Z,18.90
2023-11-15T02:35:52.370Z,18.90
2023-11-15T02:38:26.044Z,18.90
2023-11-15T02:40:58.823Z,18.90
2023-11-15T02:43:31.982Z,18.90
2023-11-15T02:46:04.975Z,18.90
2023-11-15T02:48:38.195Z,18.90
2023-11-15T02:51:14.156Z,18.90
2023-11-15T02:53:47.187Z,18.90
2023-11-15T02:56:20.162Z,18.90
2023-11-15T02:58:53.202Z,18.90
2023-11-15T03:01:26.150Z,18.90
2023-11-15T03:03:59.236Z,18.90
2023-11-15T03:06:32.772Z,18.90
2023-11-15T03:09:06.469Z,18.90
2023-11-15T03:11:39.463Z,18.90
2023-11-15T03:14:12.463Z,18.90
2023-11-15T03:16:45.420Z,19.00
2023-11-15T03:19:18.543Z,19.00
2023-11-15T03:21:51.407Z,19.00
2023-11-15T03:24:24.397Z,19.00
2023-11-15T03:26:57.548Z,19.00
2023-11-15T03:29:30.963Z,19.00
2023-11-15T03:32:03.870Z,19.00
2023-11-15T03:34:38.142Z,18.90
2023-11-15T03:37:13.063Z,19.00
2023-11-15T03:39:46.878Z,18.90
2023-11-15T03:42:19.921Z,19.00
2023-11-15T03:44:54.235Z,19.00
2023-11-15T03:47:27.835Z,18.90
2023-11-15T03:50:00.884Z,19.00
2023-11-15T03:52:34.124Z,18.90
2023-11-15T03:55:12.068Z,18.90
2023-11-15T03:57:45.964Z,18.90
2023-11-15T04:00:22.993Z,18.90
2023-11-15T04:02:56.047Z,18.90
2023-11-15T04:05:30.229Z,18.90
2023-11-15T04:08:03.232Z,18.90
2023-11-15T04:10:36.183Z,18.90
2023-11-15T04:13:09.289Z,18.90
2023-11-15T04:15:42.187Z,18.80
2023-11-15T04:18:15.322Z,18.80
2023-11-15T04:20:48.252Z,18.80
2023-11-15T04:23:21.756Z,18.80
2023-11-15T04:25:54.660Z,18.80
2023-11-15T04:28:27.416Z,18.80
2023-11-15T04:31:00.286Z,18.80
2023-11-15T04:33:33.632Z,18.80
2023-11-15T04:36:06.749Z,18.80
2023-11-15T04:38:40.169Z,18.80
2023-11-15T04:41:14.452Z,18.80
2023-11-15T04:43:54.811Z,18.70
2023-11-15T04:46:25.773Z,18.70
2023-11-15T04:48:58.795Z,18.70
2023-11-15T04:51:31.605Z,18.70
2023-11-15T04:54:04.642Z,18.70
2023-11-15T04:56:38.058Z,18.70
2023-11-15T04:59:10.915Z,18.70
2023-11-15T05:01:44.879Z,18.70
2023-11-15T05:04:17.972Z,18.70
2023-11-15T05:06:51.612Z,18.70
2023-11-15T05:09:24.899Z,18.70
2023-11-15T05:11:57.928Z,18.70
2023-11-15T05:14:30.773Z,18.70
2023-11-15T05:17:03.562Z,18.60
2023-11-15T05:19:37.276Z,18.60
2023-11-15T05:22:10.414Z,18.60
2023-11-15T05:24:43.587Z,18.60
2023-11-15T05:27:16.303Z,18.60
2023-11-15T05:29:49.076Z,18.60
2023-11-15T05:32:22.008Z,18.60
2023-11-15T05:34:55.059Z,18.60
2023-11-15T05:37:28.490Z,18.50
2023-11-15T05:40:01.422Z,18.50
2023-11-15T05:42:34.314Z,18.50
2023-11-15T05:45:07.610Z,18.50
2023-11-15T05:47:41.293Z,18.50
2023-11-15T05:50:14.730Z,18.50
2023-11-15T05:52:47.742Z,18.50
2023-11-15T05:55:20.581Z,18.50
2023-11-15T05:57:53.347Z,18.40
2023-11-15T06:00:26.594Z,18.40
2023-11-15T06:02:59.758Z,18.40
2023-11-15T06:05:32.706Z,18.40
2023-11-15T06:08:05.946Z,18.40
2023-11-15T06:10:39.005Z,18.30
2023-11-15T06:13:11.811Z,18.30
2023-11-15T06:15:44.790Z,18.30
2023-11-15T06:18:17.721Z,18.30
2023-11-15T06:20:50.797Z,18.30
2023-11-15T06:23:23.522Z,18.30
2023-11-15T06:25:56.489Z,18.20
2023-11-15T06:28:29.294Z,18.20
2023-11-15T06:31:02.312Z,18.20
2023-11-15T06:33:35.322Z,18.20
2023-11-15T06:36:08.376Z,18.20
2023-11-15T06:38:41.278Z,18.10
2023-11-15T06:41:14.415Z,18.10
2023-11-15T06:43:48.588Z,18.10
2023-11-15T06:46:24.626Z,18.10
2023-11-15T06:49:00.058Z,18.10
2023-11-15T06:51:32.843Z,18.10
2023-11-15T06:54:05.671Z,18.10
2023-11-15T06:56:38.851Z,18.10
2023-11-15T06:59:11.606Z,18.10
2023-11-15T07:01:44.511Z,18.10
2023-11-15T07:04:17.533Z,18.10
2023-11-15T07:06:50.910Z,18.10
2023-11-15T07:09:24.106Z,18.10
2023-11-15T07:11:57.056Z,18.10
2023-11-15T07:14:31.079Z,18.10
2023-11-15T07:17:03.964Z,18.00
2023-11-15T07:19:36.967Z,18.00
2023-11-15T07:22:09.901Z,18.00
2023-11-15T07:24:42.983Z,17.90
2023-11-15T07:27:16.921Z,17.80
2023-11-15T07:29:50.095Z,17.80
2023-11-15T07:32:23.526Z,17.80
2023-11-15T07:34:56.439Z,17.80
2023-11-15T07:37:29.405Z,17.80
2023-11-15T07:40:02.611Z,17.80
2023-11-15T07:42:36.777Z,17.70
2023-11-15T07:45:11.489Z,17.70
2023-11-15T07:47:46.085Z,17.70
2023-11-15T07:50:19.032Z,17.70
2023-11-15T07:52:52.018Z,17.60
2023-11-15T07:55:24.936Z,17.60
2023-11-15T07:57:58.105Z,17.60
2023-11-15T08:00:31.439Z,17.60
2023-11-15T08:03:04.512Z,17.50
2023-11-15T08:05:40.808Z,17.50
2023-11-15T08:08:14.558Z,17.50
2023-11-15T08:10:48.676Z,17.50
2023-11-15T08:13:24.324Z,17.40
2023-11-15T08:15:58.372Z,17.40
2023-11-15T08:18:31.446Z,17.40
2023-11-15T08:21:06.563Z,17.30
2023-11-15T08:23:42.101Z,17.20
2023-11-15T08:26:16.869Z,17.20
2023-11-15T08:28:54.796Z,17.20
2023-11-15T08:31:29.644Z,17.20
2023-11-15T08:34:04.233Z,17.20
2023-11-15T08:36:37.427Z,17.20
2023-11-15T08:39:14.771Z,17.10
2023-11-15T08:41:49.224Z,17.10
2023-11-15T08:44:22.385Z,17.10
2023-11-15T08:46:55.469Z,17.10
2023-11-15T08:49:29.466Z,17.10
2023-11-15T08:52:02.381Z,17.00
2023-11-15T08:54:35.529Z,17.00
2023-11-15T08:57:09.232Z,17.00
2023-11-15T08:59:42.704Z,17.00
2023-11-15T09:02:17.219Z,17.00
2023-11-15T09:04:50.460Z,16.90
2023-11-15T09:07:23.780Z,16.90
2023-11-15T09:09:57.544Z,16.90
2023-11-15T09:12:31.941Z,16.90
2023-11-15T09:15:06.621Z,16.80
2023-11-15T09:17:40.986Z,16.80
2023-11-15T09:20:15.736Z,16.80
2023-11-15T09:22:50.196Z,16.80
2023-11-15T09:25:28.238Z,16.80
2023-11-15T09:28:03.226Z,16.70
2023-11-15T09:30:36.340Z,16.70
2023-11-15T09:33:09.987Z,16.70
2023-11-15T09:35:52.223Z,16.70
2023-11-15T09:38:17.500Z,16.70
2023-11-15T09:40:51.433Z,16.60
2023-11-15T09:43:24.749Z,16.60
2023-11-15T09:46:00.174Z,16.60
2023-11-15T09:48:35.964Z,16.60
2023-11-15T09:51:11.929Z,16.60
2023-11-15T09:53:44.953Z,16.60
2023-11-15T09:58:52.365Z,16.60
2023-11-15T10:01:25.404Z,16.60
2023-11-15T10:03:58.602Z,16.60
2023-11-15T10:06:34.566Z,16.50
2023-11-15T10:09:07.864Z,16.50
2023-11-15T10:11:41.886Z,16.50
2023-11-15T10:14:16.825Z,16.50
2023-11-15T10:16:55.895Z,16.50
2023-11-15T10:19:30.601Z,16.50
2023-11-15T10:22:07.561Z,16.50
2023-11-15T10:24:40.990Z,16.40
2023-11-15T10:27:16.054Z,16.40
2023-11-15T10:29:52.975Z,16.40
2023-11-15T10:32:28.475Z,16.40
2023-11-15T10:35:01.654Z,16.50
2023-11-15T10:37:34.842Z,16.50
2023-11-15T10:40:09.524Z,16.40
2023-11-15T10:42:44.299Z,16.40
2023-11-15T10:45:19.181Z,16.40
2023-11-15T10:48:09.325Z,16.30
2023-11-15T10:50:44.394Z,16.30
2023-11-15T10:53:19.886Z,16.30
2023-11-15T10:55:53.926Z,16.30
2023-11-15T10:58:27.028Z,16.30
2023-11-15T11:01:01.079Z,16.30
2023-11-15T11:03:34.158Z,16.30
2023-11-15T11:06:12.741Z,16.30
2023-11-15T11:08:57.242Z,16.30
2023-11-15T11:11:43.943Z,16.30
2023-11-15T11:14:33.424Z,16.30
2023-11-15T11:17:06.611Z,16.30
2023-11-15T11:19:41.302Z,16.20
2023-11-15T11:22:15.766Z,16.20
2023-11-15T11:25:07.076Z,16.20
2023-11-15T11:27:40.283Z,16.20
2023-11-15T11:30:21.162Z,16.20
2023-11-15T11:32:55.533Z,16.10
2023-11-15T11:35:30.610Z,16.10
2023-11-15T11:38:03.976Z,16.10
2023-11-15T11:40:42.254Z,16.10
2023-11-15T11:43:24.199Z,16.10
2023-11-15T11:45:57.957Z,16.00
2023-11-15T11:48:35.546Z,16.00
2023-11-15T11:51:12.392Z,16.00
2023-11-15T11:53:47.018Z,16.00
2023-11-15T11:56:19.926Z,16.10
2023-11-15T11:58:53.062Z,16.00
2023-11-15T12:01:26.244Z,16.00
2023-11-15T12:04:01.557Z,16.00
2023-11-15T12:06:35.808Z,16.00
2023-11-15T12:09:10.130Z,16.00
2023-11-15T12:11:43.799Z,15.90
2023-11-15T12:14:18.821Z,15.90
2023-11-15T12:16:53.304Z,15.90
2023-11-15T12:19:27.195Z,15.90
2023-11-15T12:22:00.852Z,15.90
2023-11-15T12:24:33.968Z,15.90
2023-11-15T12:27:07.053Z,15.90
2023-11-15T12:29:40.852Z,15.80
2023-11-15T12:32:13.871Z,15.80
2023-11-15T12:34:48.032Z,15.80
2023-11-15T12:37:20.822Z,15.80
2023-11-15T12:39:53.688Z,15.80
2023-11-15T12:42:34.058Z,15.80
2023-11-15T12:45:07.015Z,15.80
2023-11-15T12:47:40.259Z,15.70
2023-11-15T12:50:13.948Z,15.70
2023-11-15T12:52:48.251Z,15.70
2023-11-15T12:55:23.170Z,15.70
2023-11-15T12:57:57.019Z,15.70
2023-11-15T13:00:36.239Z,15.70
2023-11-15T13:03:11.477Z,15.80
2023-11-15T13:05:44.902Z,15.80
2023-11-15T13:08:17.907Z,15.80
2023-11-15T13:10:50.971Z,15.80
2023-11-15T13:13:24.718Z,15.80
2023-11-15T13:15:57.602Z,15.80
2023-11-15T13:18:30.873Z,15.90
2023-11-15T13:21:04.182Z,15.90
2023-11-15T13:23:44.139Z,15.80
2023-11-15T13:26:18.041Z,15.80
2023-11-15T13:28:51.945Z,15.80
2023-11-15T13:31:26.928Z,15.80
2023-11-15T13:33:59.978Z,15.80
2023-11-15T13:36:33.051Z,15.80
2023-11-15T13:39:07.186Z,15.80
2023-11-15T13:41:40.155Z,15.80
2023-11-15T13:44:13.181Z,15.80
2023-11-15T13:46:47.379Z,15.80
2023-11-15T13:49:21.231Z,15.80
2023-11-15T13:51:54.895Z,15.80
2023-11-15T13:54:28.351Z,15.80
2023-11-15T13:57:01.368Z,15.80
2023-11-15T13:59:35.354Z,15.80
2023-11-15T14:02:08.241Z,15.80
2023-11-15T14:04:41.309Z,15.80
2023-11-15T14:07:14.366Z,15.80
2023-11-15T14:09:48.561Z,15.80
2023-11-15T14:12:22.766Z,15.80
2023-11-15T14:14:56.274Z,15.70
2023-11-15T14:17:31.999Z,15.70
2023-11-15T14:20:05.594Z,15.80
2023-11-15T14:22:40.639Z,15.80
2023-11-15T14:25:14.313Z,15.80
2023-11-15T14:27:48.854Z,15.70
2023-11-15T14:30:23.041Z,15.70
2023-11-15T14:32:56.595Z,15.70
2023-11-15T14:35:29.839Z,15.70
2023-11-15T14:38:04.101Z,15.70
2023-11-15T14:40:37.899Z,15.70
2023-11-15T14:43:12.006Z,15.70
2023-11-15T14:45:46.396Z,15.70
2023-11-15T14:48:24.104Z,15.70
2023-11-15T14:50:57.586Z,15.70
2023-11-15T14:53:31.753Z,15.70
2023-11-15T14:56:05.103Z,15.60
2023-11-15T14:58:38.358Z,15.60
2023-11-15T15:01:11.201Z,15.60
2023-11-15T15:03:44.229Z,15.60
2023-11-15T15:06:17.397Z,15.60
2023-11-15T15:08:50.539Z,15.50
2023-11-15T15:11:23.658Z,15.50
2023-11-15T15:14:01.539Z,15.50
2023-11-15T15:16:34.668Z,15.50
2023-11-15T15:19:11.534Z,15.50
2023-11-15T15:21:43.269Z,15.50
2023-11-15T15:24:16.189Z,15.50
2023-11-15T15:26:49.165Z,15.50
2023-11-15T15:29:27.395Z,15.50
2023-11-15T15:31:58.633Z,15.50
2023-11-15T15:34:32.379Z,15.50
2023-11-15T15:37:06.357Z,15.50
2023-11-15T15:39:39.404Z,15.50
2023-11-15T15:42:13.743Z,15.50
2023-11-15T15:44:50.942Z,15.50
2023-11-15T15:47:23.958Z,15.50
2023-11-15T15:49:58.384Z,15.50
2023-11-15T15:52:31.340Z,15.50
2023-11-15T15:55:05.198Z,15.50
2023-11-15T15:57:38.304Z,15.50
2023-11-15T16:00:13.282Z,15.50
2023-11-15T16:02:47.987Z,15.50
2023-11-15T16:05:21.506Z,15.50
2023-11-15T16:07:56.557Z,15.40
2023-11-15T16:10:28.453Z,15.40
2023-11-15T16:13:01.360Z,15.40
2023-11-15T16:15:34.352Z,15.40
2023-11-15T16:18:07.540Z,15.40
2023-11-15T16:20:46.967Z,15.50
2023-11-15T16:23:19.952Z,15.50
2023-11-15T16:25:54.859Z,15.50
2023-11-15T16:28:27.771Z,15.50
2023-11-15T16:31:03.037Z,15.40
2023-11-15T16:33:36.021Z,15.40
2023-11-15T16:36:10.778Z,15.30
2023-11-15T16:38:45.156Z,15.30
2023-11-15T16:41:19.466Z,15.30
2023-11-15T16:43:52.655Z,15.30
2023-11-15T16:46:25.770Z,15.30
2023-11-15T16:48:58.381Z,15.30
2023-11-15T16:51:31.398Z,15.30
2023-11-15T16:54:04.139Z,15.30
2023-11-15T16:56:37.148Z,15.30
2023-11-15T16:59:12.298Z,15.20
2023-11-15T17:01:49.498Z,15.20
2023-11-15T17:04:22.417Z,15.20
2023-11-15T17:06:55.459Z,15.20
2023-11-15T17:09:28.408Z,15.20
2023-11-15T17:12:01.491Z,15.10
2023-11-15T17:14:34.383Z,15.10
2023-11-15T17:17:11.726Z,15.10
2023-11-15T17:19:44.958Z,15.10
2023-11-15T17:22:18.815Z,15.10
2023-11-15T17:24:51.910Z,15.10
2023-11-15T17:27:24.928Z,15.10
2023-11-15T17:29:59.366Z,15.10
2023-11-15T17:32:32.320Z,15.10
2023-11-15T17:35:06.540Z,15.10
2023-11-15T17:37:39.769Z,15.10
2023-11-15T17:40:14.504Z,15.10
2023-11-15T17:42:47.474Z,15.10
2023-11-15T17:45:20.916Z,15.10
2023-11-15T17:47:53.840Z,15.10
2023-11-15T17:50:27.441Z,15.10
2023-11-15T17:53:01.220Z,15.10
2023-11-15T17:55:34.105Z,15.20
2023-11-15T17:58:07.048Z,15.20
2023-11-15T18:00:40.869Z,15.20
2023-11-15T18:03:14.221Z,15.20
2023-11-15T18:05:47.239Z,15.20
2023-11-15T18:08:23.996Z,15.20
2023-11-15T18:10:58.120Z,15.30
2023-11-15T18:13:31.586Z,15.30
2023-11-15T18:16:04.587Z,15.30
2023-11-15T18:18:37.384Z,15.40
2023-11-15T18:21:10.843Z,15.40
2023-11-15T18:23:43.816Z,15.40
2023-11-15T18:26:16.650Z,15.40
2023-11-15T18:28:49.468Z,15.50
2023-11-15T18:31:22.764Z,15.50
2023-11-15T18:33:57.341Z,15.50
2023-11-15T18:36:31.015Z,15.60
2023-11-15T18:39:04.406Z,15.60
2023-11-15T18:41:37.368Z,15.70
2023-11-15T18:44:10.346Z,15.70
2023-11-15T18:46:43.769Z,15.80
2023-11-15T18:49:17.887Z,15.80
2023-11-15T18:51:55.061Z,15.90
2023-11-15T18:54:28.453Z,15.90
2023-11-15T18:57:01.419Z,16.00
2023-11-15T18:59:35.594Z,16.00
2023-11-15T19:02:09.039Z,16.10
2023-11-15T19:04:42.195Z,16.20
2023-11-15T19:07:15.099Z,16.20
2023-11-15T19:09:48.619Z,16.20
2023-11-15T19:12:21.632Z,16.30
2023-11-15T19:14:54.423Z,16.40
2023-11-15T19:17:27.402Z,16.40
2023-11-15T19:20:01.328Z,16.50
2023-11-15T19:22:34.273Z,16.50
2023-11-15T19:25:07.963Z,16.60
2023-11-15T19:27:41.383Z,16.60
2023-11-15T19:30:15.202Z,16.70
2023-11-15T19:32:48.528Z,16.70
2023-11-15T19:35:22.358Z,16.80
2023-11-15T19:37:55.814Z,16.80
2023-11-15T19:40:28.754Z,16.90
2023-11-15T19:43:01.730Z,16.90
2023-11-15T19:45:34.531Z,17.00
2023-11-15T19:48:07.880Z,17.00
2023-11-15T19:50:41.600Z,17.10
2023-11-15T19:53:14.688Z,17.10
2023-11-15T19:55:47.995Z,17.10
2023-11-15T19:58:20.860Z,17.10
2023-11-15T20:00:53.750Z,17.20
2023-11-15T20:03:26.614Z,17.20
2023-11-15T20:05:59.532Z,17.20
2023-11-15T20:08:32.621Z,17.30
2023-11-15T20:11:06.381Z,17.40
2023-11-15T20:13:39.183Z,17.40
2023-11-15T20:16:12.948Z,17.50
2023-11-15T20:18:45.861Z,17.60
2023-11-15T20:21:18.870Z,17.60
2023-11-15T20:23:51.864Z,17.70
2023-11-15T20:26:24.819Z,17.80
2023-11-15T20:28:57.776Z,17.80
2023-11-15T20:31:30.597Z,17.80
2023-11-15T20:34:04.589Z,17.90
2023-11-15T20:36:42.645Z,17.90
2023-11-15T20:39:22.048Z,17.90
2023-11-15T20:41:51.062Z,17.90
2023-11-15T20:44:23.940Z,17.90
2023-11-15T20:46:57.189Z,17.90
2023-11-15T20:49:30.802Z,17.90
2023-11-15T20:52:04.806Z,17.90
2023-11-15T20:54:38.542Z,17.90
2023-11-15T20:57:11.456Z,17.90
2023-11-15T20:59:44.378Z,17.90
2023-11-15T21:02:17.255Z,17.90
2023-11-15T21:04:50.852Z,17.90
2023-11-15T21:07:23.784Z,17.90
2023-11-15T21:09:57.033Z,17.90
2023-11-15T21:12:29.860Z,17.90
2023-11-15T21:15:02.811Z,18.00
2023-11-15T21:17:35.755Z,18.00
2023-11-15T21:20:10.124Z,18.10
2023-11-15T21:22:46.666Z,18.10
2023-11-15T21:25:19.660Z,18.20
2023-11-15T21:27:52.812Z,18.20
2023-11-15T21:30:26.119Z,18.30
2023-11-15T21:32:59.125Z,18.30
2023-11-15T21:35:32.216Z,18.30
2023-11-15T21:38:06.250Z,18.40
2023-11-15T21:40:39.153Z,18.40
2023-11-15T21:43:11.955Z,18.40
2023-11-15T21:45:44.964Z,18.40
2023-11-15T21:48:18.448Z,18.50
2023-11-15T21:50:51.889Z,18.50
2023-11-15T21:53:24.639Z,18.50
2023-11-15T21:55:58.384Z,18.60
2023-11-15T21:58:31.590Z,18.60
2023-11-15T22:01:04.792Z,18.70
2023-11-15T22:03:37.670Z,18.70
2023-11-15T22:06:11.183Z,18.70
2023-11-15T22:08:44.101Z,18.80
2023-11-15T22:11:16.980Z,18.80
2023-11-15T22:13:49.958Z,18.90
2023-11-15T22:16:23.138Z,18.90
2023-11-15T22:18:56.605Z,19.00
2023-11-15T22:21:29.596Z,19.10
2023-11-15T22:24:02.452Z,19.20
2023-11-15T22:26:35.564Z,19.20
2023-11-15T22:29:08.368Z,19.30
2023-11-15T22:31:44.449Z,19.40
2023-11-15T22:34:19.321Z,19.50
2023-11-15T22:36:52.208Z,19.60
2023-11-15T22:39:25.233Z,19.70
2023-11-15T22:41:58.852Z,19.80
2023-11-15T22:44:32.001Z,19.80
2023-11-15T22:47:04.931Z,19.90
2023-11-15T22:49:37.926Z,20.00
2023-11-15T22:52:11.778Z,20.00
2023-11-15T22:54:44.688Z,20.10
2023-11-15T22:57:17.396Z,20.20
2023-11-15T22:59:52.420Z,20.20
2023-11-15T23:02:24.389Z,20.30
2023-11-15T23:04:58.127Z,20.40
2023-11-15T23:07:32.186Z,20.40
2023-11-15T23:10:21.171Z,20.50
2023-11-15T23:12:53.506Z,20.50
2023-11-15T23:15:27.699Z,20.60
2023-11-15T23:18:00.988Z,20.70
2023-11-15T23:20:35.526Z,20.70
2023-11-15T23:23:08.494Z,20.80
2023-11-15T23:25:44.301Z,20.80
2023-11-15T23:28:17.692Z,20.80
2023-11-15T23:30:51.417Z,20.90
2023-11-15T23:33:24.523Z,20.90
2023-11-15T23:35:57.786Z,20.90
2023-11-15T23:38:31.947Z,20.90
2023-11-15T23:41:05.879Z,21.00
2023-11-15T23:43:38.715Z,21.00
2023-11-15T23:46:12.062Z,21.00
2023-11-15T23:48:49.043Z,21.00
2023-11-15T23:51:22.855Z,21.10
2023-11-15T23:53:56.722Z,21.10
2023-11-15T23:56:30.043Z,21.10
2023-11-15T23:59:03.109Z,21.10
